sensor_id;sensor_type;location;lat;lon;timestamp;temperature;humidity
15156;DHT22;7678;50.058;8.306;2023-02-02T00:01:33;6.10;99.90
15156;DHT22;7678;50.058;8.306;2023-02-02T00:04:01;6.10;99.90
15156;DHT22;7678;50.058;8.306;2023-02-02T00:06:30;6.10;99.90
15156;DHT22;7678;50.058;8.306;2023-02-02T00:09:00;6.10;99.90
15156;DHT22;7678;50.058;8.306;2023-02-02T00:11:28;6.20;99.90
15156;DHT22;7678;50.058;8.306;2023-02-02T00:13:57;6.30;99.90
15156;DHT22;7678;50.058;8.306;2023-02-02T00:16:42;6.20;99.90
15156;DHT22;7678;50.058;8.306;2023-02-02T00:19:12;6.20;99.90
15156;DHT22;7678;50.058;8.306;2023-02-02T00:21:41;6.30;99.90
15156;DHT22;7678;50.058;8.306;2023-02-02T00:24:11;6.20;99.90
15156;DHT22;7678;50.058;8.306;2023-02-02T00:26:40;6.10;99.90
15156;DHT22;7678;50.058;8.306;2023-02-02T00:29:14;6.00;99.90
15156;DHT22;7678;50.058;8.306;2023-02-02T00:31:42;5.90;99.90
15156;DHT22;7678;50.058;8.306;2023-02-02T00:34:11;6.00;99.90
15156;DHT22;7678;50.058;8.306;2023-02-02T00:36:40;6.10;99.90
15156;DHT22;7678;50.058;8.306;2023-02-02T00:39:09;6.30;99.90
15156;DHT22;7678;50.058;8.306;2023-02-02T00:41:37;6.30;99.90
15156;DHT22;7678;50.058;8.306;2023-02-02T00:44:05;6.20;99.90
15156;DHT22;7678;50.058;8.306;2023-02-02T00:46:52;6.30;99.90
15156;DHT22;7678;50.058;8.306;2023-02-02T00:49:21;6.20;99.90
15156;DHT22;7678;50.058;8.306;2023-02-02T00:51:49;6.20;99.90
15156;DHT22;7678;50.058;8.306;2023-02-02T00:54:17;6.10;99.90
15156;DHT22;7678;50.058;8.306;2023-02-02T00:56:45;6.20;99.90
15156;DHT22;7678;50.058;8.306;2023-02-02T00:59:13;6.20;99.90
15156;DHT22;7678;50.058;8.306;2023-02-02T01:01:41;6.20;99.90
15156;DHT22;7678;50.058;8.306;2023-02-02T01:04:11;6.10;99.90
15156;DHT22;7678;50.058;8.306;2023-02-02T01:06:39;6.20;99.90
15156;DHT22;7678;50.058;8.306;2023-02-02T01:09:08;6.20;99.90
15156;DHT22;7678;50.058;8.306;2023-02-02T01:11:36;6.30;99.90
15156;DHT22;7678;50.058;8.306;2023-02-02T01:14:04;6.30;99.90
15156;DHT22;7678;50.058;8.306;2023-02-02T01:16:32;6.30;99.90
15156;DHT22;7678;50.058;8.306;2023-02-02T01:19:00;6.30;99.90
15156;DHT22;7678;50.058;8.306;2023-02-02T01:21:29;6.30;99.90
15156;DHT22;7678;50.058;8.306;2023-02-02T01:23:58;6.20;99.90
15156;DHT22;7678;50.058;8.306;2023-02-02T01:26:26;6.30;99.90
15156;DHT22;7678;50.058;8.306;2023-02-02T01:28:54;6.30;99.90
15156;DHT22;7678;50.058;8.306;2023-02-02T01:31:22;6.30;99.90
15156;DHT22;7678;50.058;8.306;2023-02-02T01:33:51;6.30;99.90
15156;DHT22;7678;50.058;8.306;2023-02-02T01:36:21;6.30;99.90
15156;DHT22;7678;50.058;8.306;2023-02-02T01:38:50;6.20;99.90
15156;DHT22;7678;50.058;8.306;2023-02-02T01:41:20;6.20;99.90
15156;DHT22;7678;50.058;8.306;2023-02-02T01:43:51;6.10;99.90
15156;DHT22;7678;50.058;8.306;2023-02-02T01:46:22;6.20;99.90
15156;DHT22;7678;50.058;8.306;2023-02-02T01:48:55;6.20;99.90
15156;DHT22;7678;50.058;8.306;2023-02-02T01:51:28;6.10;99.90
15156;DHT22;7678;50.058;8.306;2023-02-02T01:53:59;6.10;99.90
15156;DHT22;7678;50.058;8.306;2023-02-02T01:56:30;6.20;99.90
15156;DHT22;7678;50.058;8.306;2023-02-02T01:58:59;6.00;99.90
15156;DHT22;7678;50.058;8.306;2023-02-02T02:01:28;6.10;99.90
15156;DHT22;7678;50.058;8.306;2023-02-02T02:03:56;6.10;99.90
15156;DHT22;7678;50.058;8.306;2023-02-02T02:06:24;6.10;99.90
15156;DHT22;7678;50.058;8.306;2023-02-02T02:08:55;6.20;99.90
15156;DHT22;7678;50.058;8.306;2023-02-02T02:11:26;6.10;99.90
15156;DHT22;7678;50.058;8.306;2023-02-02T02:13:56;6.10;99.90
15156;DHT22;7678;50.058;8.306;2023-02-02T02:16:52;6.10;99.90
15156;DHT22;7678;50.058;8.306;2023-02-02T02:19:39;6.10;99.90
15156;DHT22;7678;50.058;8.306;2023-02-02T02:22:30;6.00;99.90
15156;DHT22;7678;50.058;8.306;2023-02-02T02:25:42;6.10;99.90
15156;DHT22;7678;50.058;8.306;2023-02-02T02:29:03;6.00;99.90
15156;DHT22;7678;50.058;8.306;2023-02-02T02:35:06;5.90;99.90
15156;DHT22;7678;50.058;8.306;2023-02-02T02:37:41;5.90;99.90
15156;DHT22;7678;50.058;8.306;2023-02-02T02:40:17;5.90;99.90
15156;DHT22;7678;50.058;8.306;2023-02-02T02:42:50;5.90;99.90
15156;DHT22;7678;50.058;8.306;2023-02-02T02:45:21;5.90;99.90
15156;DHT22;7678;50.058;8.306;2023-02-02T02:47:50;5.80;99.90
15156;DHT22;7678;50.058;8.306;2023-02-02T02:50:20;5.80;99.90
15156;DHT22;7678;50.058;8.306;2023-02-02T02:53:01;5.90;99.90
15156;DHT22;7678;50.058;8.306;2023-02-02T02:55:39;5.90;99.90
15156;DHT22;7678;50.058;8.306;2023-02-02T02:58:12;5.90;99.90
15156;DHT22;7678;50.058;8.306;2023-02-02T03:00:58;5.90;99.90
15156;DHT22;7678;50.058;8.306;2023-02-02T03:03:44;5.90;99.90
15156;DHT22;7678;50.058;8.306;2023-02-02T03:06:18;5.80;99.90
15156;DHT22;7678;50.058;8.306;2023-02-02T03:08:52;5.90;99.90
15156;DHT22;7678;50.058;8.306;2023-02-02T03:11:23;5.90;99.90
15156;DHT22;7678;50.058;8.306;2023-02-02T03:13:51;5.90;99.90
15156;DHT22;7678;50.058;8.306;2023-02-02T03:16:19;5.90;99.90
15156;DHT22;7678;50.058;8.306;2023-02-02T03:18:47;5.90;99.90
15156;DHT22;7678;50.058;8.306;2023-02-02T03:21:15;5.90;99.90
15156;DHT22;7678;50.058;8.306;2023-02-02T03:23:43;5.90;99.90
15156;DHT22;7678;50.058;8.306;2023-02-02T03:26:11;5.90;99.90
15156;DHT22;7678;50.058;8.306;2023-02-02T03:28:41;5.90;99.90
15156;DHT22;7678;50.058;8.306;2023-02-02T03:31:09;5.90;99.90
15156;DHT22;7678;50.058;8.306;2023-02-02T03:33:38;5.90;99.90
15156;DHT22;7678;50.058;8.306;2023-02-02T03:36:06;5.90;99.90
15156;DHT22;7678;50.058;8.306;2023-02-02T03:38:35;5.90;99.90
15156;DHT22;7678;50.058;8.306;2023-02-02T03:41:04;5.90;99.90
15156;DHT22;7678;50.058;8.306;2023-02-02T03:43:32;6.00;99.90
15156;DHT22;7678;50.058;8.306;2023-02-02T03:46:03;5.90;99.90
15156;DHT22;7678;50.058;8.306;2023-02-02T03:48:34;5.90;99.90
15156;DHT22;7678;50.058;8.306;2023-02-02T03:51:07;6.00;99.90
15156;DHT22;7678;50.058;8.306;2023-02-02T03:53:37;6.00;99.90
15156;DHT22;7678;50.058;8.306;2023-02-02T03:56:06;6.00;99.90
15156;DHT22;7678;50.058;8.306;2023-02-02T03:58:34;6.00;99.90
15156;DHT22;7678;50.058;8.306;2023-02-02T04:01:05;6.00;99.90
15156;DHT22;7678;50.058;8.306;2023-02-02T04:03:33;6.10;99.90
15156;DHT22;7678;50.058;8.306;2023-02-02T04:06:01;6.10;99.90
15156;DHT22;7678;50.058;8.306;2023-02-02T04:08:29;6.10;99.90
15156;DHT22;7678;50.058;8.306;2023-02-02T04:10:58;6.10;99.90
15156;DHT22;7678;50.058;8.306;2023-02-02T04:13:26;6.10;99.90
15156;DHT22;7678;50.058;8.306;2023-02-02T04:15:56;6.10;99.90
15156;DHT22;7678;50.058;8.306;2023-02-02T04:18:26;6.10;99.90
15156;DHT22;7678;50.058;8.306;2023-02-02T04:20:57;6.10;99.90
15156;DHT22;7678;50.058;8.306;2023-02-02T04:23:26;6.20;99.90
15156;DHT22;7678;50.058;8.306;2023-02-02T04:25:55;6.20;99.90
15156;DHT22;7678;50.058;8.306;2023-02-02T04:28:23;6.20;99.90
15156;DHT22;7678;50.058;8.306;2023-02-02T04:30:52;6.20;99.90
15156;DHT22;7678;50.058;8.306;2023-02-02T04:33:22;6.20;99.90
15156;DHT22;7678;50.058;8.306;2023-02-02T04:35:51;6.20;99.90
15156;DHT22;7678;50.058;8.306;2023-02-02T04:38:20;6.30;99.90
15156;DHT22;7678;50.058;8.306;2023-02-02T04:40:48;6.30;99.90
15156;DHT22;7678;50.058;8.306;2023-02-02T04:43:16;6.20;99.90
15156;DHT22;7678;50.058;8.306;2023-02-02T04:45:44;6.20;99.90
15156;DHT22;7678;50.058;8.306;2023-02-02T04:48:12;6.20;99.90
15156;DHT22;7678;50.058;8.306;2023-02-02T04:50:40;6.20;99.90
15156;DHT22;7678;50.058;8.306;2023-02-02T04:53:10;6.30;99.90
15156;DHT22;7678;50.058;8.306;2023-02-02T04:55:38;6.20;99.90
15156;DHT22;7678;50.058;8.306;2023-02-02T04:58:06;6.20;99.90
15156;DHT22;7678;50.058;8.306;2023-02-02T05:00:34;6.30;99.90
15156;DHT22;7678;50.058;8.306;2023-02-02T05:03:02;6.20;99.90
15156;DHT22;7678;50.058;8.306;2023-02-02T05:05:31;6.20;99.90
15156;DHT22;7678;50.058;8.306;2023-02-02T05:07:59;6.20;99.90
15156;DHT22;7678;50.058;8.306;2023-02-02T05:10:28;6.20;99.90
15156;DHT22;7678;50.058;8.306;2023-02-02T05:12:56;6.20;99.90
15156;DHT22;7678;50.058;8.306;2023-02-02T05:15:25;6.10;99.90
15156;DHT22;7678;50.058;8.306;2023-02-02T05:17:53;6.20;99.90
15156;DHT22;7678;50.058;8.306;2023-02-02T05:20:21;6.20;99.90
15156;DHT22;7678;50.058;8.306;2023-02-02T05:22:49;6.10;99.90
15156;DHT22;7678;50.058;8.306;2023-02-02T05:25:17;6.10;99.90
15156;DHT22;7678;50.058;8.306;2023-02-02T05:27:46;6.00;99.90
15156;DHT22;7678;50.058;8.306;2023-02-02T05:30:15;6.00;99.90
15156;DHT22;7678;50.058;8.306;2023-02-02T05:32:43;6.10;99.90
15156;DHT22;7678;50.058;8.306;2023-02-02T05:35:11;6.10;99.90
15156;DHT22;7678;50.058;8.306;2023-02-02T05:37:41;6.10;99.90
15156;DHT22;7678;50.058;8.306;2023-02-02T05:40:10;6.10;99.90
15156;DHT22;7678;50.058;8.306;2023-02-02T05:42:38;6.20;99.90
15156;DHT22;7678;50.058;8.306;2023-02-02T05:45:09;6.10;99.90
15156;DHT22;7678;50.058;8.306;2023-02-02T05:47:37;6.20;99.90
15156;DHT22;7678;50.058;8.306;2023-02-02T05:50:06;6.20;99.90
15156;DHT22;7678;50.058;8.306;2023-02-02T05:52:36;6.30;99.90
15156;DHT22;7678;50.058;8.306;2023-02-02T05:55:06;6.30;99.90
15156;DHT22;7678;50.058;8.306;2023-02-02T05:57:35;6.20;99.90
15156;DHT22;7678;50.058;8.306;2023-02-02T06:00:05;6.20;99.90
15156;DHT22;7678;50.058;8.306;2023-02-02T06:02:35;6.30;99.90
15156;DHT22;7678;50.058;8.306;2023-02-02T06:05:04;6.20;99.90
15156;DHT22;7678;50.058;8.306;2023-02-02T06:07:32;6.20;99.90
15156;DHT22;7678;50.058;8.306;2023-02-02T06:10:00;6.20;99.90
15156;DHT22;7678;50.058;8.306;2023-02-02T06:12:28;6.20;99.90
15156;DHT22;7678;50.058;8.306;2023-02-02T06:14:56;6.20;99.90
15156;DHT22;7678;50.058;8.306;2023-02-02T06:17:24;6.20;99.90
15156;DHT22;7678;50.058;8.306;2023-02-02T06:19:53;6.20;99.90
15156;DHT22;7678;50.058;8.306;2023-02-02T06:22:21;6.30;99.90
15156;DHT22;7678;50.058;8.306;2023-02-02T06:24:49;6.30;99.90
15156;DHT22;7678;50.058;8.306;2023-02-02T06:27:19;6.20;99.90
15156;DHT22;7678;50.058;8.306;2023-02-02T06:29:47;6.30;99.90
15156;DHT22;7678;50.058;8.306;2023-02-02T06:32:15;6.30;99.90
15156;DHT22;7678;50.058;8.306;2023-02-02T06:34:43;6.30;99.90
15156;DHT22;7678;50.058;8.306;2023-02-02T06:37:13;6.30;99.90
15156;DHT22;7678;50.058;8.306;2023-02-02T06:39:41;6.30;99.90
15156;DHT22;7678;50.058;8.306;2023-02-02T06:42:09;6.40;99.90
15156;DHT22;7678;50.058;8.306;2023-02-02T06:44:47;6.40;99.90
15156;DHT22;7678;50.058;8.306;2023-02-02T06:47:15;6.30;99.90
15156;DHT22;7678;50.058;8.306;2023-02-02T06:49:43;6.40;99.90
15156;DHT22;7678;50.058;8.306;2023-02-02T06:52:13;6.40;99.90
15156;DHT22;7678;50.058;8.306;2023-02-02T06:54:41;6.40;99.90
15156;DHT22;7678;50.058;8.306;2023-02-02T06:57:09;6.40;99.90
15156;DHT22;7678;50.058;8.306;2023-02-02T06:59:37;6.40;99.90
15156;DHT22;7678;50.058;8.306;2023-02-02T07:02:09;6.40;99.90
15156;DHT22;7678;50.058;8.306;2023-02-02T07:04:37;6.40;99.90
15156;DHT22;7678;50.058;8.306;2023-02-02T07:07:06;6.40;99.90
15156;DHT22;7678;50.058;8.306;2023-02-02T07:09:35;6.40;99.90
15156;DHT22;7678;50.058;8.306;2023-02-02T07:12:04;6.40;99.90
15156;DHT22;7678;50.058;8.306;2023-02-02T07:14:32;6.40;99.90
15156;DHT22;7678;50.058;8.306;2023-02-02T07:17:00;6.40;99.90
15156;DHT22;7678;50.058;8.306;2023-02-02T07:19:28;6.40;99.90
15156;DHT22;7678;50.058;8.306;2023-02-02T07:21:56;6.40;99.90
15156;DHT22;7678;50.058;8.306;2023-02-02T07:24:24;6.40;99.90
15156;DHT22;7678;50.058;8.306;2023-02-02T07:26:55;6.40;99.90
15156;DHT22;7678;50.058;8.306;2023-02-02T07:29:24;6.50;99.90
15156;DHT22;7678;50.058;8.306;2023-02-02T07:31:52;6.50;99.90
15156;DHT22;7678;50.058;8.306;2023-02-02T07:34:21;6.50;99.90
15156;DHT22;7678;50.058;8.306;2023-02-02T07:36:49;6.50;99.90
15156;DHT22;7678;50.058;8.306;2023-02-02T07:39:17;6.40;99.90
15156;DHT22;7678;50.058;8.306;2023-02-02T07:41:45;6.40;99.90
15156;DHT22;7678;50.058;8.306;2023-02-02T07:44:16;6.40;99.90
15156;DHT22;7678;50.058;8.306;2023-02-02T07:46:45;6.40;99.90
15156;DHT22;7678;50.058;8.306;2023-02-02T07:49:15;6.40;99.90
15156;DHT22;7678;50.058;8.306;2023-02-02T07:51:44;6.50;99.90
15156;DHT22;7678;50.058;8.306;2023-02-02T07:54:14;6.50;99.90
15156;DHT22;7678;50.058;8.306;2023-02-02T07:56:42;6.50;99.90
15156;DHT22;7678;50.058;8.306;2023-02-02T07:59:11;6.50;99.90
15156;DHT22;7678;50.058;8.306;2023-02-02T08:01:41;6.40;99.90
15156;DHT22;7678;50.058;8.306;2023-02-02T08:04:09;6.50;99.90
15156;DHT22;7678;50.058;8.306;2023-02-02T08:06:38;6.50;99.90
15156;DHT22;7678;50.058;8.306;2023-02-02T08:09:07;6.50;99.90
15156;DHT22;7678;50.058;8.306;2023-02-02T08:11:37;6.60;99.90
15156;DHT22;7678;50.058;8.306;2023-02-02T08:14:05;6.60;99.90
15156;DHT22;7678;50.058;8.306;2023-02-02T08:16:36;6.60;99.90
15156;DHT22;7678;50.058;8.306;2023-02-02T08:19:05;6.60;99.90
15156;DHT22;7678;50.058;8.306;2023-02-02T08:21:34;6.70;99.90
15156;DHT22;7678;50.058;8.306;2023-02-02T08:24:02;6.70;99.90
15156;DHT22;7678;50.058;8.306;2023-02-02T08:26:31;6.70;99.90
15156;DHT22;7678;50.058;8.306;2023-02-02T08:29:01;6.70;99.90
15156;DHT22;7678;50.058;8.306;2023-02-02T08:31:33;6.70;99.90
15156;DHT22;7678;50.058;8.306;2023-02-02T08:34:01;6.70;99.90
15156;DHT22;7678;50.058;8.306;2023-02-02T08:36:31;6.80;99.90
15156;DHT22;7678;50.058;8.306;2023-02-02T08:39:06;6.90;99.90
15156;DHT22;7678;50.058;8.306;2023-02-02T08:41:34;6.80;99.90
15156;DHT22;7678;50.058;8.306;2023-02-02T08:44:05;6.80;99.90
15156;DHT22;7678;50.058;8.306;2023-02-02T08:46:37;6.80;99.90
15156;DHT22;7678;50.058;8.306;2023-02-02T08:49:08;6.80;99.90
15156;DHT22;7678;50.058;8.306;2023-02-02T08:51:38;6.80;99.90
15156;DHT22;7678;50.058;8.306;2023-02-02T08:54:07;6.80;99.90
15156;DHT22;7678;50.058;8.306;2023-02-02T08:56:35;6.80;99.90
15156;DHT22;7678;50.058;8.306;2023-02-02T08:59:04;6.80;99.90
15156;DHT22;7678;50.058;8.306;2023-02-02T09:01:34;6.90;99.90
15156;DHT22;7678;50.058;8.306;2023-02-02T09:04:05;6.90;99.90
15156;DHT22;7678;50.058;8.306;2023-02-02T09:06:36;6.90;99.90
15156;DHT22;7678;50.058;8.306;2023-02-02T09:09:07;7.00;99.90
15156;DHT22;7678;50.058;8.306;2023-02-02T09:11:36;6.90;99.90
15156;DHT22;7678;50.058;8.306;2023-02-02T09:14:05;7.00;99.90
15156;DHT22;7678;50.058;8.306;2023-02-02T09:16:35;7.10;99.90
15156;DHT22;7678;50.058;8.306;2023-02-02T09:19:08;7.10;99.90
15156;DHT22;7678;50.058;8.306;2023-02-02T09:21:37;7.10;99.90
15156;DHT22;7678;50.058;8.306;2023-02-02T09:24:10;7.20;99.90
15156;DHT22;7678;50.058;8.306;2023-02-02T09:26:39;7.10;99.90
15156;DHT22;7678;50.058;8.306;2023-02-02T09:29:12;7.20;99.90
15156;DHT22;7678;50.058;8.306;2023-02-02T09:31:41;7.20;99.90
15156;DHT22;7678;50.058;8.306;2023-02-02T09:34:12;7.30;99.90
15156;DHT22;7678;50.058;8.306;2023-02-02T09:36:47;7.30;99.90
15156;DHT22;7678;50.058;8.306;2023-02-02T09:39:17;7.30;99.90
15156;DHT22;7678;50.058;8.306;2023-02-02T09:42:20;7.30;99.90
15156;DHT22;7678;50.058;8.306;2023-02-02T09:45:00;7.30;99.90
15156;DHT22;7678;50.058;8.306;2023-02-02T09:47:51;7.30;99.90
15156;DHT22;7678;50.058;8.306;2023-02-02T09:50:36;7.30;99.90
15156;DHT22;7678;50.058;8.306;2023-02-02T09:53:15;7.30;99.90
15156;DHT22;7678;50.058;8.306;2023-02-02T09:55:48;7.30;99.90
15156;DHT22;7678;50.058;8.306;2023-02-02T09:58:20;7.40;99.90
15156;DHT22;7678;50.058;8.306;2023-02-02T10:00:54;7.40;99.90
15156;DHT22;7678;50.058;8.306;2023-02-02T10:03:27;7.40;99.90
15156;DHT22;7678;50.058;8.306;2023-02-02T10:06:02;7.40;99.90
15156;DHT22;7678;50.058;8.306;2023-02-02T10:08:34;7.40;99.90
15156;DHT22;7678;50.058;8.306;2023-02-02T10:11:19;7.40;99.90
15156;DHT22;7678;50.058;8.306;2023-02-02T10:13:50;7.40;99.90
15156;DHT22;7678;50.058;8.306;2023-02-02T10:16:21;7.50;99.90
15156;DHT22;7678;50.058;8.306;2023-02-02T10:18:54;7.40;99.90
15156;DHT22;7678;50.058;8.306;2023-02-02T10:21:28;7.50;99.90
15156;DHT22;7678;50.058;8.306;2023-02-02T10:24:01;7.50;99.90
15156;DHT22;7678;50.058;8.306;2023-02-02T10:26:37;7.40;99.90
15156;DHT22;7678;50.058;8.306;2023-02-02T10:29:11;7.40;99.90
15156;DHT22;7678;50.058;8.306;2023-02-02T10:31:45;7.40;99.90
15156;DHT22;7678;50.058;8.306;2023-02-02T10:34:21;7.50;99.90
15156;DHT22;7678;50.058;8.306;2023-02-02T10:37:12;7.50;99.90
15156;DHT22;7678;50.058;8.306;2023-02-02T10:39:55;7.50;99.90
15156;DHT22;7678;50.058;8.306;2023-02-02T10:42:34;7.50;99.90
15156;DHT22;7678;50.058;8.306;2023-02-02T10:45:10;7.50;99.90
15156;DHT22;7678;50.058;8.306;2023-02-02T10:47:40;7.60;99.90
15156;DHT22;7678;50.058;8.306;2023-02-02T10:50:17;7.60;99.90
15156;DHT22;7678;50.058;8.306;2023-02-02T10:52:47;7.60;99.90
15156;DHT22;7678;50.058;8.306;2023-02-02T10:55:24;7.70;99.90
15156;DHT22;7678;50.058;8.306;2023-02-02T10:58:07;7.70;99.90
15156;DHT22;7678;50.058;8.306;2023-02-02T11:00:46;7.80;99.90
15156;DHT22;7678;50.058;8.306;2023-02-02T11:03:18;7.80;99.90
15156;DHT22;7678;50.058;8.306;2023-02-02T11:05:47;7.70;99.90
15156;DHT22;7678;50.058;8.306;2023-02-02T11:08:34;7.70;99.90
15156;DHT22;7678;50.058;8.306;2023-02-02T11:11:10;7.70;99.90
15156;DHT22;7678;50.058;8.306;2023-02-02T11:13:43;7.70;99.90
15156;DHT22;7678;50.058;8.306;2023-02-02T11:16:25;7.70;99.90
15156;DHT22;7678;50.058;8.306;2023-02-02T11:19:22;7.70;99.90
15156;DHT22;7678;50.058;8.306;2023-02-02T11:21:52;7.70;99.90
15156;DHT22;7678;50.058;8.306;2023-02-02T11:24:23;7.70;99.90
15156;DHT22;7678;50.058;8.306;2023-02-02T11:26:55;7.70;99.90
15156;DHT22;7678;50.058;8.306;2023-02-02T11:29:29;7.70;99.90
15156;DHT22;7678;50.058;8.306;2023-02-02T11:31:58;7.70;99.90
15156;DHT22;7678;50.058;8.306;2023-02-02T11:34:44;7.70;99.90
15156;DHT22;7678;50.058;8.306;2023-02-02T11:37:13;7.80;99.90
15156;DHT22;7678;50.058;8.306;2023-02-02T11:39:42;7.90;99.90
15156;DHT22;7678;50.058;8.306;2023-02-02T11:42:15;8.00;99.90
15156;DHT22;7678;50.058;8.306;2023-02-02T11:44:49;8.00;99.90
15156;DHT22;7678;50.058;8.306;2023-02-02T11:47:20;8.10;99.90
15156;DHT22;7678;50.058;8.306;2023-02-02T11:49:49;8.20;99.90
15156;DHT22;7678;50.058;8.306;2023-02-02T11:52:20;8.20;99.90
15156;DHT22;7678;50.058;8.306;2023-02-02T11:54:51;8.20;99.90
15156;DHT22;7678;50.058;8.306;2023-02-02T11:57:22;8.20;99.90
15156;DHT22;7678;50.058;8.306;2023-02-02T12:00:10;8.20;99.90
15156;DHT22;7678;50.058;8.306;2023-02-02T12:02:45;8.20;99.90
15156;DHT22;7678;50.058;8.306;2023-02-02T12:05:32;8.20;99.90
15156;DHT22;7678;50.058;8.306;2023-02-02T12:08:01;8.20;99.90
15156;DHT22;7678;50.058;8.306;2023-02-02T12:10:34;8.30;99.90
15156;DHT22;7678;50.058;8.306;2023-02-02T12:13:08;8.20;99.90
15156;DHT22;7678;50.058;8.306;2023-02-02T12:15:47;8.30;99.90
15156;DHT22;7678;50.058;8.306;2023-02-02T12:18:29;8.30;99.90
15156;DHT22;7678;50.058;8.306;2023-02-02T12:21:07;8.30;99.90
15156;DHT22;7678;50.058;8.306;2023-02-02T12:23:48;8.30;99.90
15156;DHT22;7678;50.058;8.306;2023-02-02T12:26:21;8.30;99.90
15156;DHT22;7678;50.058;8.306;2023-02-02T12:29:18;8.20;99.90
15156;DHT22;7678;50.058;8.306;2023-02-02T12:32:10;8.20;99.90
15156;DHT22;7678;50.058;8.306;2023-02-02T12:34:54;8.20;99.90
15156;DHT22;7678;50.058;8.306;2023-02-02T12:37:36;8.20;99.90
15156;DHT22;7678;50.058;8.306;2023-02-02T12:40:25;8.20;99.90
15156;DHT22;7678;50.058;8.306;2023-02-02T12:43:06;8.30;99.90
15156;DHT22;7678;50.058;8.306;2023-02-02T12:45:44;8.30;99.90
15156;DHT22;7678;50.058;8.306;2023-02-02T12:48:26;8.40;99.90
15156;DHT22;7678;50.058;8.306;2023-02-02T12:51:09;8.40;99.90
15156;DHT22;7678;50.058;8.306;2023-02-02T12:53:58;8.40;99.90
15156;DHT22;7678;50.058;8.306;2023-02-02T12:56:57;8.30;99.90
15156;DHT22;7678;50.058;8.306;2023-02-02T12:59:55;8.30;99.90
15156;DHT22;7678;50.058;8.306;2023-02-02T13:02:32;8.30;99.90
15156;DHT22;7678;50.058;8.306;2023-02-02T13:05:17;8.30;99.90
15156;DHT22;7678;50.058;8.306;2023-02-02T13:07:48;8.30;99.90
15156;DHT22;7678;50.058;8.306;2023-02-02T13:10:22;8.30;99.90
15156;DHT22;7678;50.058;8.306;2023-02-02T13:12:55;8.20;99.90
15156;DHT22;7678;50.058;8.306;2023-02-02T13:15:30;8.20;99.90
15156;DHT22;7678;50.058;8.306;2023-02-02T13:18:02;8.20;99.90
15156;DHT22;7678;50.058;8.306;2023-02-02T13:20:40;8.20;99.90
15156;DHT22;7678;50.058;8.306;2023-02-02T13:23:16;8.20;99.90
15156;DHT22;7678;50.058;8.306;2023-02-02T13:25:48;8.20;99.90
15156;DHT22;7678;50.058;8.306;2023-02-02T13:28:32;8.20;99.90
15156;DHT22;7678;50.058;8.306;2023-02-02T13:31:07;8.20;99.90
15156;DHT22;7678;50.058;8.306;2023-02-02T13:33:38;8.20;99.90
15156;DHT22;7678;50.058;8.306;2023-02-02T13:36:17;8.30;99.90
15156;DHT22;7678;50.058;8.306;2023-02-02T13:38:54;8.20;99.90
15156;DHT22;7678;50.058;8.306;2023-02-02T13:41:24;8.30;99.90
15156;DHT22;7678;50.058;8.306;2023-02-02T13:43:57;8.30;99.90
15156;DHT22;7678;50.058;8.306;2023-02-02T13:46:34;8.30;99.90
15156;DHT22;7678;50.058;8.306;2023-02-02T13:49:06;8.30;99.90
15156;DHT22;7678;50.058;8.306;2023-02-02T13:52:00;8.30;99.90
15156;DHT22;7678;50.058;8.306;2023-02-02T13:55:03;8.20;99.90
15156;DHT22;7678;50.058;8.306;2023-02-02T13:57:52;8.30;99.90
15156;DHT22;7678;50.058;8.306;2023-02-02T14:00:26;8.40;99.90
15156;DHT22;7678;50.058;8.306;2023-02-02T14:02:58;8.50;99.90
15156;DHT22;7678;50.058;8.306;2023-02-02T14:05:30;8.50;99.90
15156;DHT22;7678;50.058;8.306;2023-02-02T14:08:03;8.50;99.90
15156;DHT22;7678;50.058;8.306;2023-02-02T14:10:34;8.40;99.90
15156;DHT22;7678;50.058;8.306;2023-02-02T14:13:13;8.50;99.90
15156;DHT22;7678;50.058;8.306;2023-02-02T14:15:58;8.50;99.90
15156;DHT22;7678;50.058;8.306;2023-02-02T14:18:55;8.50;99.90
15156;DHT22;7678;50.058;8.306;2023-02-02T14:22:03;8.50;99.90
15156;DHT22;7678;50.058;8.306;2023-02-02T14:24:42;8.50;99.90
15156;DHT22;7678;50.058;8.306;2023-02-02T14:30:29;8.60;99.90
15156;DHT22;7678;50.058;8.306;2023-02-02T14:33:26;8.50;99.90
15156;DHT22;7678;50.058;8.306;2023-02-02T14:36:12;8.50;99.90
15156;DHT22;7678;50.058;8.306;2023-02-02T14:39:09;8.50;99.90
15156;DHT22;7678;50.058;8.306;2023-02-02T14:42:09;8.50;99.90
15156;DHT22;7678;50.058;8.306;2023-02-02T14:45:25;8.50;99.90
15156;DHT22;7678;50.058;8.306;2023-02-02T14:47:55;8.50;99.90
15156;DHT22;7678;50.058;8.306;2023-02-02T14:50:31;8.50;99.90
15156;DHT22;7678;50.058;8.306;2023-02-02T14:53:05;8.40;99.90
15156;DHT22;7678;50.058;8.306;2023-02-02T14:55:37;8.40;99.90
15156;DHT22;7678;50.058;8.306;2023-02-02T14:58:23;8.40;99.90
15156;DHT22;7678;50.058;8.306;2023-02-02T15:00:59;8.30;99.90
15156;DHT22;7678;50.058;8.306;2023-02-02T15:03:44;8.30;99.90
15156;DHT22;7678;50.058;8.306;2023-02-02T15:06:25;8.30;99.90
15156;DHT22;7678;50.058;8.306;2023-02-02T15:09:25;8.30;99.90
15156;DHT22;7678;50.058;8.306;2023-02-02T15:12:14;8.20;99.90
15156;DHT22;7678;50.058;8.306;2023-02-02T15:14:47;8.20;99.90
15156;DHT22;7678;50.058;8.306;2023-02-02T15:17:24;8.20;99.90
15156;DHT22;7678;50.058;8.306;2023-02-02T15:20:00;8.20;99.90
15156;DHT22;7678;50.058;8.306;2023-02-02T15:22:36;8.20;99.90
15156;DHT22;7678;50.058;8.306;2023-02-02T15:25:16;8.20;99.90
15156;DHT22;7678;50.058;8.306;2023-02-02T15:27:50;8.20;99.90
15156;DHT22;7678;50.058;8.306;2023-02-02T15:30:26;8.20;99.90
15156;DHT22;7678;50.058;8.306;2023-02-02T15:33:01;8.20;99.90
15156;DHT22;7678;50.058;8.306;2023-02-02T15:35:32;8.30;99.90
15156;DHT22;7678;50.058;8.306;2023-02-02T15:38:06;8.30;99.90
15156;DHT22;7678;50.058;8.306;2023-02-02T15:40:39;8.30;99.90
15156;DHT22;7678;50.058;8.306;2023-02-02T15:43:09;8.30;99.90
15156;DHT22;7678;50.058;8.306;2023-02-02T15:45:43;8.40;99.90
15156;DHT22;7678;50.058;8.306;2023-02-02T15:48:23;8.40;99.90
15156;DHT22;7678;50.058;8.306;2023-02-02T15:50:53;8.40;99.90
15156;DHT22;7678;50.058;8.306;2023-02-02T15:53:24;8.30;99.90
15156;DHT22;7678;50.058;8.306;2023-02-02T15:55:54;8.30;99.90
15156;DHT22;7678;50.058;8.306;2023-02-02T15:58:31;8.30;99.90
15156;DHT22;7678;50.058;8.306;2023-02-02T16:01:05;8.30;99.90
15156;DHT22;7678;50.058;8.306;2023-02-02T16:03:42;8.20;99.90
15156;DHT22;7678;50.058;8.306;2023-02-02T16:06:12;8.30;99.90
15156;DHT22;7678;50.058;8.306;2023-02-02T16:08:41;8.30;99.90
15156;DHT22;7678;50.058;8.306;2023-02-02T16:11:10;8.30;99.90
15156;DHT22;7678;50.058;8.306;2023-02-02T16:13:41;8.20;99.90
15156;DHT22;7678;50.058;8.306;2023-02-02T16:16:23;8.20;99.90
15156;DHT22;7678;50.058;8.306;2023-02-02T16:19:04;8.20;99.90
15156;DHT22;7678;50.058;8.306;2023-02-02T16:21:36;8.20;99.90
15156;DHT22;7678;50.058;8.306;2023-02-02T16:24:08;8.20;99.90
15156;DHT22;7678;50.058;8.306;2023-02-02T16:26:38;8.20;99.90
15156;DHT22;7678;50.058;8.306;2023-02-02T16:29:09;8.10;99.90
15156;DHT22;7678;50.058;8.306;2023-02-02T16:31:39;8.10;99.90
15156;DHT22;7678;50.058;8.306;2023-02-02T16:34:13;8.10;99.90
15156;DHT22;7678;50.058;8.306;2023-02-02T16:39:27;8.10;99.90
15156;DHT22;7678;50.058;8.306;2023-02-02T16:42:07;8.10;99.90
15156;DHT22;7678;50.058;8.306;2023-02-02T16:44:39;8.20;99.90
15156;DHT22;7678;50.058;8.306;2023-02-02T16:47:34;8.20;99.90
15156;DHT22;7678;50.058;8.306;2023-02-02T16:50:26;8.30;99.90
15156;DHT22;7678;50.058;8.306;2023-02-02T16:53:11;8.20;99.90